Time;durP1;ratioP1;P1;durP2;ratioP2;P2;SDS_P1;SDS_P2;PMS_P1;PMS_P2;Temp;Humidity;BMP_temperature;BMP_pressure;BME280_temperature;BME280_humidity;BME280_pressure;Samples;Min_cycle;Max_cycle;Signal;HPM_P1;HPM_P2
2023/08/16 00:01:57;;;;;;;1999.90;999.90;;;;;;;19.53;100.00;94271.53;5007672;28;20192;-60
2023/08/16 00:04:23;;;;;;;1999.90;999.90;;;;;;;19.52;100.00;94280.31;5007535;28;20200;-61
2023/08/16 00:06:49;;;;;;;1999.90;999.90;;;;;;;19.50;100.00;94289.13;5007548;28;20264;-60
2023/08/16 00:09:16;;;;;;;1999.90;999.90;;;;;;;19.49;100.00;94298.69;5007555;28;20184;-60
2023/08/16 00:11:41;;;;;;;1999.90;999.90;;;;;;;19.48;100.00;94317.28;5007357;28;20195;-62
2023/08/16 00:14:07;;;;;;;1999.90;999.90;;;;;;;19.48;100.00;94324.84;5008135;28;20168;-60
2023/08/16 00:16:32;;;;;;;1999.90;999.90;;;;;;;19.42;100.00;94340.66;5007572;28;20219;-60
2023/08/16 00:18:58;;;;;;;1999.90;999.90;;;;;;;19.40;100.00;94337.59;5007426;28;20218;-60
2023/08/16 00:21:24;;;;;;;1999.90;999.90;;;;;;;19.38;100.00;94337.31;5007157;28;20196;-60
2023/08/16 00:23:49;;;;;;;1999.90;999.90;;;;;;;19.37;100.00;94333.00;5007290;28;20191;-60
2023/08/16 00:26:15;;;;;;;1999.90;999.90;;;;;;;19.33;100.00;94340.78;5007518;28;20192;-60
2023/08/16 00:28:41;;;;;;;1999.90;999.90;;;;;;;19.28;100.00;94341.47;5006134;28;20188;-60
2023/08/16 00:31:07;;;;;;;1999.90;999.90;;;;;;;19.25;100.00;94345.22;5007126;28;20253;-60
2023/08/16 00:33:32;;;;;;;1999.90;999.90;;;;;;;19.23;100.00;94336.63;5007099;28;20207;-57
2023/08/16 00:35:58;;;;;;;1999.90;999.90;;;;;;;19.21;100.00;94339.09;5007023;28;20275;-57
2023/08/16 00:38:23;;;;;;;1999.90;999.90;;;;;;;19.19;100.00;94336.03;5006932;28;20195;-58
2023/08/16 00:40:52;;;;;;;1999.90;999.90;;;;;;;19.16;100.00;94337.03;5006870;28;20191;-57
2023/08/16 00:43:18;;;;;;;1999.90;999.90;;;;;;;19.12;100.00;94337.22;5007078;28;20200;-60
2023/08/16 00:45:45;;;;;;;1999.90;999.90;;;;;;;19.08;100.00;94338.66;5007121;28;20238;-60
2023/08/16 00:48:12;;;;;;;1999.90;999.90;;;;;;;19.07;100.00;94337.13;5007134;28;20203;-60
2023/08/16 00:50:38;;;;;;;1999.90;999.90;;;;;;;19.05;100.00;94342.41;5007020;28;20247;-60
2023/08/16 00:53:03;;;;;;;1999.90;999.90;;;;;;;19.02;100.00;94340.59;5006732;28;20203;-60
2023/08/16 00:55:29;;;;;;;1999.90;999.90;;;;;;;19.01;100.00;94345.38;5006776;28;20199;-60
2023/08/16 00:57:55;;;;;;;1999.90;999.90;;;;;;;18.99;100.00;94349.88;5006616;28;20346;-59
2023/08/16 01:00:21;;;;;;;1999.90;999.90;;;;;;;18.94;100.00;94359.63;5006705;28;20199;-61
2023/08/16 01:02:46;;;;;;;1999.90;999.90;;;;;;;18.95;100.00;94354.84;5006397;28;20262;-60
2023/08/16 01:05:11;;;;;;;1999.90;999.90;;;;;;;18.98;100.00;94354.63;5006607;28;20200;-60
2023/08/16 01:07:37;;;;;;;1999.90;999.90;;;;;;;19.01;100.00;94341.84;5006505;28;20231;-60
2023/08/16 01:10:03;;;;;;;1999.90;999.90;;;;;;;19.02;100.00;94337.84;5006634;28;20480;-60
2023/08/16 01:12:40;;;;;;;1999.90;999.90;;;;;;;18.98;100.00;94337.28;5005994;28;20198;-60
2023/08/16 01:15:28;;;;;;;1999.90;999.90;;;;;;;18.95;100.00;94338.25;5006700;28;20195;-59
2023/08/16 01:17:53;;;;;;;1999.90;999.90;;;;;;;18.93;100.00;94346.25;5006251;28;20223;-59
2023/08/16 01:20:21;;;;;;;1999.90;999.90;;;;;;;18.93;100.00;94346.25;5006156;28;20234;-59
2023/08/16 01:23:29;;;;;;;1999.90;999.90;;;;;;;18.86;100.00;94335.59;5006244;28;20196;-59
2023/08/16 01:26:14;;;;;;;1999.90;999.90;;;;;;;18.82;100.00;94329.50;4977983;28;20216;-59
2023/08/16 01:28:40;;;;;;;1999.90;999.90;;;;;;;18.76;100.00;94334.22;5006394;28;20411;-59
2023/08/16 01:31:06;;;;;;;1999.90;999.90;;;;;;;18.72;100.00;94330.88;5006117;28;20211;-59
2023/08/16 01:33:31;;;;;;;1999.90;999.90;;;;;;;18.67;100.00;94328.78;5005793;28;20212;-59
2023/08/16 01:35:57;;;;;;;1999.90;999.90;;;;;;;18.68;100.00;94330.31;5005742;28;20216;-59
2023/08/16 01:38:24;;;;;;;1999.90;999.90;;;;;;;18.66;100.00;94327.28;5005623;28;20294;-60
2023/08/16 01:40:58;;;;;;;1999.90;999.90;;;;;;;18.66;100.00;94327.28;5005752;28;20207;-59
2023/08/16 01:43:24;;;;;;;1999.90;999.90;;;;;;;18.62;100.00;94318.41;5005554;28;20211;-60
2023/08/16 01:45:52;;;;;;;1999.90;999.90;;;;;;;18.61;100.00;94314.88;5006169;28;20278;-59
2023/08/16 01:48:21;;;;;;;1999.90;999.90;;;;;;;18.57;100.00;94319.06;5005614;28;20207;-59
2023/08/16 01:50:46;;;;;;;1999.90;999.90;;;;;;;18.54;100.00;94311.75;5005458;28;20203;-59
2023/08/16 01:53:12;;;;;;;1999.90;999.90;;;;;;;18.51;100.00;94309.94;5005875;28;20215;-59
2023/08/16 01:55:37;;;;;;;1999.90;999.90;;;;;;;18.46;100.00;94307.84;5005805;28;20200;-59
2023/08/16 01:58:03;;;;;;;1999.90;999.90;;;;;;;18.46;100.00;94305.84;5005426;28;20211;-59
2023/08/16 02:00:28;;;;;;;1999.90;999.90;;;;;;;18.46;100.00;94307.84;5005454;28;20206;-60
2023/08/16 02:02:53;;;;;;;1999.90;999.90;;;;;;;18.45;100.00;94311.88;5005726;28;20200;-59
2023/08/16 02:05:19;;;;;;;1999.90;999.90;;;;;;;18.40;100.00;94309.78;5005500;28;20238;-59
2023/08/16 02:07:44;;;;;;;1999.90;999.90;;;;;;;18.37;100.00;94305.22;5005336;28;20200;-59
2023/08/16 02:10:09;;;;;;;1999.90;999.90;;;;;;;18.34;100.00;94306.91;5005245;28;20200;-59
2023/08/16 02:12:35;;;;;;;1999.90;999.90;;;;;;;18.32;100.00;94303.09;5005183;28;20230;-59
2023/08/16 02:15:00;;;;;;;1999.90;999.90;;;;;;;18.29;100.00;94304.06;5005739;28;20295;-59
2023/08/16 02:17:25;;;;;;;1999.90;999.90;;;;;;;18.31;100.00;94302.34;5005178;28;20211;-60
2023/08/16 02:19:51;;;;;;;1999.90;999.90;;;;;;;18.29;100.00;94287.47;5005096;28;20266;-59
2023/08/16 02:22:16;;;;;;;1999.90;999.90;;;;;;;18.29;100.00;94293.00;5005115;28;20204;-60
2023/08/16 02:24:42;;;;;;;1999.90;999.90;;;;;;;18.27;100.00;94295.47;5005161;28;20187;-59
2023/08/16 02:27:07;;;;;;;1999.90;999.90;;;;;;;18.25;100.00;94306.25;5005390;28;20199;-59
2023/08/16 02:29:32;;;;;;;1999.90;999.90;;;;;;;18.21;100.00;94302.94;5005428;28;20496;-59
2023/08/16 02:31:58;;;;;;;1999.90;999.90;;;;;;;18.22;100.00;94299.69;5004813;28;20204;-59
2023/08/16 02:34:23;;;;;;;1999.90;999.90;;;;;;;18.20;100.00;94295.84;5004738;28;20227;-60
2023/08/16 02:36:48;;;;;;;1999.90;999.90;;;;;;;18.18;100.00;94288.03;5004607;28;20225;-59
2023/08/16 02:39:14;;;;;;;1999.90;999.90;;;;;;;18.17;100.00;94291.31;5004738;28;20199;-59
2023/08/16 02:41:39;;;;;;;1999.90;999.90;;;;;;;18.16;100.00;94289.78;5004909;28;20208;-59
2023/08/16 02:44:04;;;;;;;1999.90;999.90;;;;;;;18.13;100.00;94296.25;5005280;28;20274;-59
2023/08/16 02:46:30;;;;;;;1999.90;999.90;;;;;;;18.13;100.00;94299.78;5004654;28;20200;-59
2023/08/16 02:48:55;;;;;;;1999.90;999.90;;;;;;;18.06;100.00;94296.66;5005002;28;20223;-59
2023/08/16 02:51:20;;;;;;;1999.90;999.90;;;;;;;18.07;100.00;94298.94;5004109;28;20238;-59
2023/08/16 02:53:46;;;;;;;1999.90;999.90;;;;;;;18.05;100.00;94306.94;5003990;28;20242;-59
2023/08/16 02:56:11;;;;;;;1999.90;999.90;;;;;;;18.03;100.00;94314.94;5004996;28;20314;-58
2023/08/16 02:58:38;;;;;;;1999.90;999.90;;;;;;;18.00;100.00;94321.44;5004980;28;20266;-59
2023/08/16 03:01:03;;;;;;;1999.90;999.90;;;;;;;18.01;100.00;94330.47;5004509;28;20196;-59
2023/08/16 03:03:29;;;;;;;1999.90;999.90;;;;;;;17.98;100.00;94328.66;5004131;28;20418;-59
2023/08/16 03:05:54;;;;;;;1999.90;999.90;;;;;;;17.94;100.00;94328.88;5004625;28;20211;-59
2023/08/16 03:08:19;;;;;;;1999.90;999.90;;;;;;;17.93;100.00;94337.63;5004563;28;20222;-59
2023/08/16 03:10:45;;;;;;;1999.90;999.90;;;;;;;17.89;100.00;94353.63;5004392;28;20280;-59
2023/08/16 03:13:10;;;;;;;1999.90;999.90;;;;;;;17.87;100.00;94351.34;5004427;28;20195;-59
2023/08/16 03:15:35;;;;;;;1999.90;999.90;;;;;;;17.87;100.00;94350.56;5004242;28;20246;-59
2023/08/16 03:18:01;;;;;;;1999.90;999.90;;;;;;;17.81;100.00;94364.28;5004329;28;20234;-59
2023/08/16 03:20:26;;;;;;;1999.90;999.90;;;;;;;17.79;100.00;94363.22;5004385;28;20195;-59
2023/08/16 03:22:52;;;;;;;1999.90;999.90;;;;;;;17.77;100.00;94365.72;5004248;28;20191;-59
2023/08/16 03:25:17;;;;;;;1999.90;999.90;;;;;;;17.77;100.00;94362.97;5004642;28;20190;-59
2023/08/16 03:27:43;;;;;;;1999.90;999.90;;;;;;;17.77;100.00;94368.47;5004600;28;20207;-59
2023/08/16 03:30:09;;;;;;;1999.90;999.90;;;;;;;17.74;100.00;94367.41;5004335;28;20191;-59
2023/08/16 03:32:34;;;;;;;1999.90;999.90;;;;;;;17.70;100.00;94369.59;5004430;28;20516;-59
2023/08/16 03:35:00;;;;;;;1999.90;999.90;;;;;;;17.69;100.00;94381.13;5004176;28;20203;-59
2023/08/16 03:37:25;;;;;;;1999.90;999.90;;;;;;;17.67;100.00;94386.38;5003926;28;20504;-59
2023/08/16 03:39:52;;;;;;;1999.90;999.90;;;;;;;17.63;100.00;94388.56;5004055;28;20278;-59
2023/08/16 03:42:17;;;;;;;1999.90;999.90;;;;;;;17.62;100.00;94384.25;5003990;28;20187;-59
2023/08/16 03:44:42;;;;;;;1999.90;999.90;;;;;;;17.59;100.00;94396.25;5003898;28;20214;-59
2023/08/16 03:47:08;;;;;;;1999.90;999.90;;;;;;;17.59;100.00;94402.53;5003929;28;20196;-59
2023/08/16 03:49:33;;;;;;;1999.90;999.90;;;;;;;17.55;100.00;94395.69;5004436;28;20199;-59
2023/08/16 03:51:58;;;;;;;1999.90;999.90;;;;;;;17.54;100.00;94405.94;5004067;28;20452;-60
2023/08/16 03:54:24;;;;;;;1999.90;999.90;;;;;;;17.57;100.00;94404.22;5004165;28;20351;-60
2023/08/16 03:56:49;;;;;;;1999.90;999.90;;;;;;;17.59;100.00;94408.03;5003725;28;20458;-59
2023/08/16 03:59:14;;;;;;;1999.90;999.90;;;;;;;17.55;100.00;94401.94;5004370;28;20211;-59
2023/08/16 04:01:40;;;;;;;1999.90;999.90;;;;;;;17.59;100.00;94407.31;5004179;28;20373;-59
2023/08/16 04:04:05;;;;;;;1999.90;999.90;;;;;;;17.58;100.00;94408.50;5006267;28;20206;-59
2023/08/16 04:06:30;;;;;;;1999.90;999.90;;;;;;;17.53;100.00;94420.22;5008005;28;20192;-59
2023/08/16 04:08:55;;;;;;;1999.90;999.90;;;;;;;17.53;100.00;94421.00;5007576;28;20219;-60
2023/08/16 04:11:21;;;;;;;1999.90;999.90;;;;;;;17.52;100.00;94429.75;5007332;28;20382;-59
2023/08/16 04:13:46;;;;;;;1999.90;999.90;;;;;;;17.44;100.00;94434.09;5007266;28;20257;-58
2023/08/16 04:16:11;;;;;;;1999.90;999.90;;;;;;;17.40;100.00;94447.25;5007316;28;20216;-59
2023/08/16 04:18:37;;;;;;;1999.90;999.90;;;;;;;17.34;100.00;94451.91;5007228;28;20207;-60
2023/08/16 04:21:05;;;;;;;1999.90;999.90;;;;;;;17.34;100.00;94446.41;5007214;28;20190;-59
2023/08/16 04:23:31;;;;;;;1999.90;999.90;;;;;;;17.35;100.00;94458.97;5007240;28;20195;-60
2023/08/16 04:25:56;;;;;;;1999.90;999.90;;;;;;;17.38;100.00;94455.25;5007045;28;20214;-60
2023/08/16 04:28:21;;;;;;;1999.90;999.90;;;;;;;17.40;100.00;94455.53;5007001;28;20299;-60
2023/08/16 04:30:46;;;;;;;1999.90;999.90;;;;;;;17.41;100.00;94455.09;5007553;28;20203;-59
2023/08/16 04:33:12;;;;;;;1999.90;999.90;;;;;;;17.48;100.00;94462.28;5007253;28;20192;-59
2023/08/16 04:35:37;;;;;;;1999.90;999.90;;;;;;;17.50;100.00;94462.56;5007171;28;20200;-60
2023/08/16 04:38:03;;;;;;;1999.90;999.90;;;;;;;17.53;100.00;94467.16;5007277;28;20216;-59
2023/08/16 04:40:28;;;;;;;1999.90;999.90;;;;;;;17.57;100.00;94476.03;5006981;28;20267;-59
2023/08/16 04:42:53;;;;;;;1999.90;999.90;;;;;;;17.55;100.00;94481.28;5006993;28;20195;-59
2023/08/16 04:45:19;;;;;;;1999.90;999.90;;;;;;;17.59;100.00;94492.91;5006808;28;20214;-59
2023/08/16 04:47:44;;;;;;;1999.90;999.90;;;;;;;17.66;100.00;94518.16;5006768;28;20188;-59
2023/08/16 04:50:09;;;;;;;1999.90;999.90;;;;;;;17.83;100.00;94533.09;5006582;28;20219;-59
2023/08/16 04:52:36;;;;;;;1999.90;999.90;;;;;;;18.05;100.00;94549.34;5006782;28;20187;-59
2023/08/16 04:55:01;;;;;;;1999.90;999.90;;;;;;;18.31;100.00;94561.44;5006601;28;20551;-59
2023/08/16 04:57:27;;;;;;;1999.90;999.90;;;;;;;18.50;100.00;94601.56;5006380;28;20212;-60
2023/08/16 04:59:52;;;;;;;1999.90;999.90;;;;;;;18.81;100.00;94632.34;5006429;28;20206;-59
2023/08/16 05:02:17;;;;;;;1999.90;999.90;;;;;;;18.78;100.00;94721.81;5006849;28;20199;-59
2023/08/16 05:04:43;;;;;;;1999.90;999.90;;;;;;;18.76;100.00;94813.59;5006687;28;20231;-59
2023/08/16 05:07:08;;;;;;;1999.90;999.90;;;;;;;18.65;100.00;94901.88;5006686;28;20195;-59
2023/08/16 05:09:35;;;;;;;1999.90;999.90;;;;;;;18.74;100.00;94954.41;5006175;28;20202;-59
2023/08/16 05:12:01;;;;;;;1999.90;999.90;;;;;;;19.04;100.00;94999.66;5006789;28;20195;-59
2023/08/16 05:14:26;;;;;;;1999.90;999.90;;;;;;;19.66;100.00;95053.25;5006047;28;20199;-60
2023/08/16 05:16:51;;;;;;;1999.90;999.90;;;;;;;20.30;100.00;95136.84;5006642;28;20218;-59
2023/08/16 05:19:17;;;;;;;1999.90;999.90;;;;;;;21.11;100.00;95239.00;5006114;28;20199;-60
2023/08/16 05:21:42;;;;;;;1999.90;999.90;;;;;;;21.48;100.00;95396.63;5006217;28;20191;-59
2023/08/16 05:24:08;;;;;;;1999.90;999.90;;;;;;;22.26;100.00;95482.44;5005961;28;20219;-59
2023/08/16 05:26:33;;;;;;;1999.90;999.90;;;;;;;22.94;100.00;95573.13;5006282;28;20246;-59
2023/08/16 05:28:59;;;;;;;1999.90;999.90;;;;;;;23.60;100.00;95637.66;5006147;28;20267;-60
2023/08/16 05:31:25;;;;;;;1999.90;999.90;;;;;;;23.83;100.00;95661.88;5006468;28;20199;-59
2023/08/16 05:33:51;;;;;;;1999.90;999.90;;;;;;;24.07;100.00;95668.13;5006413;28;20227;-59
2023/08/16 05:36:16;;;;;;;1999.90;999.90;;;;;;;24.11;100.00;95671.50;5006378;28;20399;-59
2023/08/16 05:38:41;;;;;;;1999.90;999.90;;;;;;;22.80;100.00;95681.75;5006065;28;20278;-59
2023/08/16 05:41:07;;;;;;;1999.90;999.90;;;;;;;22.18;100.00;95682.41;5005818;28;20199;-59
2023/08/16 05:43:32;;;;;;;1999.90;999.90;;;;;;;21.50;100.00;95680.47;5005893;28;20219;-60
2023/08/16 05:45:58;;;;;;;1999.90;999.90;;;;;;;21.64;100.00;95660.34;5005838;28;20200;-60
2023/08/16 05:48:23;;;;;;;1999.90;999.90;;;;;;;21.85;100.00;95659.38;5005577;28;20323;-59
2023/08/16 05:50:48;;;;;;;1999.90;999.90;;;;;;;22.16;100.00;95672.97;5005594;28;20192;-59
2023/08/16 05:53:14;;;;;;;1999.90;999.90;;;;;;;23.11;100.00;95684.88;5005617;28;20204;-59
2023/08/16 05:55:39;;;;;;;1999.90;999.90;;;;;;;24.12;100.00;95689.78;5005670;28;20263;-60
2023/08/16 05:58:04;;;;;;;1999.90;999.90;;;;;;;24.81;100.00;95703.75;5005397;28;20241;-59
2023/08/16 06:00:30;;;;;;;1999.90;999.90;;;;;;;25.51;100.00;95693.91;5005726;28;20201;-60
2023/08/16 06:02:56;;;;;;;1999.90;999.90;;;;;;;25.86;100.00;95700.13;5005292;28;20264;-59
2023/08/16 06:05:21;;;;;;;1999.90;999.90;;;;;;;26.22;100.00;95699.41;5005743;28;20203;-59
2023/08/16 06:07:47;;;;;;;1999.90;999.90;;;;;;;26.45;100.00;95701.13;5005357;28;20259;-59
2023/08/16 06:10:12;;;;;;;1999.90;999.90;;;;;;;26.82;100.00;95696.25;5005589;28;20226;-59
2023/08/16 06:12:38;;;;;;;1999.90;999.90;;;;;;;27.12;100.00;95702.25;5005032;28;20192;-60
2023/08/16 06:15:04;;;;;;;1999.90;999.90;;;;;;;27.25;100.00;95694.97;5005190;28;20200;-59
2023/08/16 06:17:29;;;;;;;1999.90;999.90;;;;;;;27.20;100.00;95692.84;5005259;28;20200;-60
2023/08/16 06:19:56;;;;;;;1999.90;999.90;;;;;;;27.53;100.00;95703.47;5005504;28;20279;-59
2023/08/16 06:22:21;;;;;;;1999.90;999.90;;;;;;;27.50;100.00;95696.03;5004695;28;20211;-59
2023/08/16 06:24:47;;;;;;;1999.90;999.90;;;;;;;27.59;100.00;95693.75;5004827;28;20192;-59
2023/08/16 06:27:12;;;;;;;1999.90;999.90;;;;;;;27.59;100.00;95696.56;5004002;28;20196;-59
2023/08/16 06:29:38;;;;;;;1999.90;999.90;;;;;;;27.86;100.00;95687.44;5005585;28;20192;-61
2023/08/16 06:32:04;;;;;;;1999.90;999.90;;;;;;;28.09;100.00;95694.59;5004607;28;20203;-59
2023/08/16 06:34:30;;;;;;;1999.90;999.90;;;;;;;28.61;100.00;95691.25;5005177;28;20172;-60
2023/08/16 06:36:56;;;;;;;1999.90;999.90;;;;;;;29.07;100.00;95685.78;5004975;28;20222;-59
2023/08/16 06:39:21;;;;;;;1999.90;999.90;;;;;;;29.52;100.00;95693.50;5005117;28;20227;-60
2023/08/16 06:41:48;;;;;;;1999.90;999.90;;;;;;;29.92;100.00;95686.34;5005081;28;20254;-59
2023/08/16 06:44:13;;;;;;;1999.90;999.90;;;;;;;30.26;100.00;95687.66;5004664;28;20203;-60
2023/08/16 06:46:38;;;;;;;1999.90;999.90;;;;;;;30.50;100.00;95690.50;5004372;28;20315;-60
2023/08/16 06:49:04;;;;;;;1999.90;999.90;;;;;;;30.49;100.00;95680.53;5004578;28;20198;-60
2023/08/16 06:51:29;;;;;;;1999.90;999.90;;;;;;;30.76;100.00;95682.31;5004455;28;20199;-60
2023/08/16 06:53:55;;;;;;;1999.90;999.90;;;;;;;31.28;100.00;95685.59;5004618;28;20241;-59
2023/08/16 06:56:20;;;;;;;1999.90;999.90;;;;;;;31.19;100.00;95677.47;5004564;28;20215;-59
2023/08/16 06:58:45;;;;;;;1999.90;999.90;;;;;;;31.83;100.00;95665.06;5004287;28;20284;-59
2023/08/16 07:01:11;;;;;;;1999.90;999.90;;;;;;;32.41;100.00;95674.44;5004568;28;20191;-59
2023/08/16 07:03:37;;;;;;;1999.90;999.90;;;;;;;32.22;100.00;95670.88;5004692;28;20200;-59
2023/08/16 07:06:02;;;;;;;1999.90;999.90;;;;;;;32.45;100.00;95674.88;5004730;28;20239;-59
2023/08/16 07:08:28;;;;;;;1999.90;999.90;;;;;;;32.51;100.00;95669.88;5004628;28;20192;-61
2023/08/16 07:10:54;;;;;;;1999.90;999.90;;;;;;;32.89;100.00;95679.00;5004187;28;20196;-59
2023/08/16 07:13:20;;;;;;;1999.90;999.90;;;;;;;33.75;100.00;95682.63;5004508;28;20207;-61
2023/08/16 07:15:46;;;;;;;1999.90;999.90;;;;;;;33.80;100.00;95674.00;5004036;28;20211;-57
2023/08/16 07:18:11;;;;;;;1999.90;999.90;;;;;;;33.02;100.00;95668.44;5004635;28;20274;-59
2023/08/16 07:20:37;;;;;;;1999.90;999.90;;;;;;;32.95;100.00;95680.41;5004298;28;20199;-59
2023/08/16 07:23:02;;;;;;;1999.90;999.90;;;;;;;33.41;100.00;95671.28;5004696;28;20204;-57
2023/08/16 07:25:28;;;;;;;1999.90;999.90;;;;;;;33.35;100.00;95679.13;5004714;28;20191;-58
2023/08/16 07:27:54;;;;;;;1999.90;999.90;;;;;;;34.03;100.00;95677.13;5004105;28;20238;-57
2023/08/16 07:30:19;;;;;;;1999.90;999.90;;;;;;;34.18;100.00;95674.41;5004512;28;20211;-58
2023/08/16 07:32:44;;;;;;;1999.90;999.90;;;;;;;33.71;100.00;95676.53;5004283;28;20206;-57
2023/08/16 07:35:10;;;;;;;1999.90;999.90;;;;;;;33.32;100.00;95673.78;5003925;28;20183;-57
2023/08/16 07:37:36;;;;;;;1999.90;999.90;;;;;;;34.28;100.00;95671.88;5003920;28;20266;-58
2023/08/16 07:40:02;;;;;;;1999.90;999.90;;;;;;;34.57;100.00;95676.31;5008536;28;20210;-60
2023/08/16 07:42:28;;;;;;;1999.90;999.90;;;;;;;35.19;100.00;95683.44;5008339;28;20199;-59
2023/08/16 07:44:53;;;;;;;1999.90;999.90;;;;;;;35.17;100.00;95685.31;5008131;28;20203;-59
2023/08/16 07:47:19;;;;;;;1999.90;999.90;;;;;;;35.69;100.00;95685.56;5008176;28;20211;-59
2023/08/16 07:49:44;;;;;;;1999.90;999.90;;;;;;;36.23;92.48;95693.00;5007911;28;20201;-60
2023/08/16 07:52:10;;;;;;;1999.90;999.90;;;;;;;35.75;100.00;95693.94;5008449;28;20195;-59
2023/08/16 07:54:35;;;;;;;1999.90;999.90;;;;;;;36.37;89.63;95694.34;5007849;28;20239;-57
2023/08/16 07:57:01;;;;;;;1999.90;999.90;;;;;;;36.65;81.14;95691.34;5008051;28;20250;-56
2023/08/16 07:59:26;;;;;;;1999.90;999.90;;;;;;;36.45;82.18;95695.16;5007399;28;20222;-56
2023/08/16 08:01:52;;;;;;;1999.90;999.90;;;;;;;35.69;91.86;95688.41;5007772;28;20242;-57
2023/08/16 08:04:18;;;;;;;1999.90;999.90;;;;;;;36.25;88.05;95682.59;5007733;28;20196;-57
2023/08/16 08:06:44;;;;;;;1999.90;999.90;;;;;;;36.15;92.74;95689.34;5007457;28;20190;-56
2023/08/16 08:09:09;;;;;;;1999.90;999.90;;;;;;;36.25;88.17;95684.66;5007729;28;20223;-57
2023/08/16 08:11:36;;;;;;;1999.90;999.90;;;;;;;35.69;90.25;95671.34;5007781;28;20206;-57
2023/08/16 08:14:02;;;;;;;1999.90;999.90;;;;;;;34.53;92.31;95679.50;5007697;28;20211;-57
2023/08/16 08:16:27;;;;;;;1999.90;999.90;;;;;;;34.90;87.96;95686.81;5007582;28;20204;-56
2023/08/16 08:18:53;;;;;;;1999.90;999.90;;;;;;;34.72;97.70;95687.78;5006910;28;20242;-57
2023/08/16 08:21:18;;;;;;;1999.90;999.90;;;;;;;34.55;97.36;95682.53;5007162;28;20258;-56
2023/08/16 08:23:43;;;;;;;1999.90;999.90;;;;;;;35.06;93.72;95677.09;5006975;28;20269;-57
2023/08/16 08:26:10;;;;;;;1999.90;999.90;;;;;;;35.68;92.66;95680.44;5007900;28;20218;-56
2023/08/16 08:28:36;;;;;;;1999.90;999.90;;;;;;;35.28;95.64;95679.31;5007108;28;20203;-56
2023/08/16 08:31:04;;;;;;;1999.90;999.90;;;;;;;33.82;100.00;95677.06;5007113;28;20199;-56
2023/08/16 08:33:30;;;;;;;1999.90;999.90;;;;;;;33.50;100.00;95661.56;5006984;28;20199;-57
2023/08/16 08:35:56;;;;;;;1999.90;999.90;;;;;;;34.25;100.00;95664.44;5006806;28;20199;-57
2023/08/16 08:38:23;;;;;;;1999.90;999.90;;;;;;;33.30;100.00;95665.81;5007141;28;20239;-57
2023/08/16 08:40:56;;;;;;;1999.90;999.90;;;;;;;34.69;97.83;95669.78;5007101;28;20196;-57
2023/08/16 08:43:27;;;;;;;1999.90;999.90;;;;;;;35.19;98.63;95676.97;5006837;28;20215;-57
2023/08/16 08:45:56;;;;;;;1999.90;999.90;;;;;;;35.55;92.22;95666.38;5007008;28;20199;-56
2023/08/16 08:48:24;;;;;;;1999.90;999.90;;;;;;;35.23;88.18;95686.66;5006444;28;20192;-58
2023/08/16 08:50:51;;;;;;;1999.90;999.90;;;;;;;35.76;93.34;95675.56;5005590;28;20219;-59
2023/08/16 08:53:17;;;;;;;1999.90;999.90;;;;;;;35.99;85.67;95684.97;5006755;28;20196;-59
2023/08/16 08:55:45;;;;;;;1999.90;999.90;;;;;;;35.96;84.01;95684.00;5006615;28;20233;-60
2023/08/16 08:58:11;;;;;;;1999.90;999.90;;;;;;;35.71;86.60;95690.69;5006512;28;20211;-59
2023/08/16 09:00:39;;;;;;;1999.90;999.90;;;;;;;34.89;85.94;95693.81;5006959;28;20192;-59
2023/08/16 09:03:07;;;;;;;1999.90;999.90;;;;;;;35.20;88.50;95681.31;5006496;28;20180;-59
2023/08/16 09:05:33;;;;;;;1999.90;999.90;;;;;;;35.66;89.36;95686.72;5006509;28;20210;-60
2023/08/16 09:08:00;;;;;;;1999.90;999.90;;;;;;;35.73;84.72;95688.06;5006551;28;20221;-59
2023/08/16 09:10:26;;;;;;;1999.90;999.90;;;;;;;34.12;92.59;95693.66;5006821;28;20258;-59
2023/08/16 09:12:52;;;;;;;1999.90;999.90;;;;;;;36.06;90.33;95681.38;5006116;28;20196;-59
2023/08/16 09:15:18;;;;;;;1999.90;999.90;;;;;;;35.30;83.18;95690.91;5006451;28;20255;-59
2023/08/16 09:17:45;;;;;;;1999.90;999.90;;;;;;;34.79;88.49;95684.25;5006082;28;20239;-59
2023/08/16 09:20:11;;;;;;;1999.90;999.90;;;;;;;34.87;93.02;95683.03;5007913;28;20207;-59
2023/08/16 09:22:37;;;;;;;1999.90;999.90;;;;;;;35.14;87.87;95672.22;5007197;28;20203;-59
2023/08/16 09:25:03;;;;;;;1999.90;999.90;;;;;;;34.70;87.33;95673.41;5006253;28;20196;-60
2023/08/16 09:27:31;;;;;;;1999.90;999.90;;;;;;;33.95;92.42;95678.34;5006434;28;20199;-59
2023/08/16 09:29:56;;;;;;;1999.90;999.90;;;;;;;33.47;100.00;95662.66;5006442;28;20290;-59
2023/08/16 09:32:22;;;;;;;1999.90;999.90;;;;;;;34.19;98.47;95653.25;5006243;28;20211;-61
2023/08/16 09:34:48;;;;;;;1999.90;999.90;;;;;;;32.79;100.00;95661.66;5006360;28;20199;-59
2023/08/16 09:37:15;;;;;;;1999.90;999.90;;;;;;;33.90;100.00;95657.31;5005612;28;20238;-59
2023/08/16 09:39:40;;;;;;;1999.90;999.90;;;;;;;33.44;100.00;95655.25;5005969;28;20242;-60
2023/08/16 09:42:10;;;;;;;1999.90;999.90;;;;;;;32.87;100.00;95653.28;5005737;28;20191;-59
2023/08/16 09:44:36;;;;;;;1999.90;999.90;;;;;;;31.94;100.00;95661.31;5005551;28;20226;-60
2023/08/16 09:47:14;;;;;;;1999.90;999.90;;;;;;;31.55;100.00;95652.63;5005608;28;20238;-59
2023/08/16 09:49:40;;;;;;;1999.90;999.90;;;;;;;31.80;100.00;95652.03;5005519;28;20188;-59
2023/08/16 09:52:12;;;;;;;1999.90;999.90;;;;;;;32.04;100.00;95654.72;5005495;28;20202;-59
2023/08/16 09:54:38;;;;;;;1999.90;999.90;;;;;;;31.81;100.00;95655.59;5005463;28;20207;-59
2023/08/16 09:57:04;;;;;;;1999.90;999.90;;;;;;;31.85;100.00;95648.34;5005651;28;20270;-59
2023/08/16 09:59:30;;;;;;;1999.90;999.90;;;;;;;32.26;100.00;95654.34;5005888;28;20314;-58
2023/08/16 10:01:57;;;;;;;1999.90;999.90;;;;;;;32.99;100.00;95654.63;5005391;28;20207;-57
2023/08/16 10:04:24;;;;;;;1999.90;999.90;;;;;;;33.22;100.00;95647.94;5005829;28;20205;-57
2023/08/16 10:06:49;;;;;;;1999.90;999.90;;;;;;;32.35;100.00;95654.00;5005519;28;20195;-56
2023/08/16 10:09:16;;;;;;;1999.90;999.90;;;;;;;32.05;100.00;95661.94;5005169;28;20238;-59
2023/08/16 10:11:44;;;;;;;1999.90;999.90;;;;;;;32.74;100.00;95648.38;5005104;28;20196;-59
2023/08/16 10:14:11;;;;;;;1999.90;999.90;;;;;;;32.49;100.00;95652.72;5005012;28;20208;-59
2023/08/16 10:16:38;;;;;;;1999.90;999.90;;;;;;;32.68;100.00;95650.56;5004946;28;20247;-59
2023/08/16 10:19:06;;;;;;;1999.90;999.90;;;;;;;32.09;100.00;95653.13;5005016;28;20295;-59
2023/08/16 10:21:37;;;;;;;1999.90;999.90;;;;;;;32.80;100.00;95651.84;5004891;28;20192;-60
2023/08/16 10:24:05;;;;;;;1999.90;999.90;;;;;;;32.09;100.00;95639.75;5004704;28;20218;-60
2023/08/16 10:26:33;;;;;;;1999.90;999.90;;;;;;;31.57;100.00;95627.44;5005116;28;20191;-59
2023/08/16 10:29:07;;;;;;;1999.90;999.90;;;;;;;32.20;100.00;95639.56;5005300;28;20286;-59
2023/08/16 10:31:37;;;;;;;1999.90;999.90;;;;;;;32.54;100.00;95637.69;5005117;28;20227;-60
2023/08/16 10:34:07;;;;;;;1999.90;999.90;;;;;;;32.66;100.00;95647.50;5005290;28;20192;-59
2023/08/16 10:36:33;;;;;;;1999.90;999.90;;;;;;;31.33;100.00;95642.41;5004733;28;20203;-60
2023/08/16 10:38:59;;;;;;;1999.90;999.90;;;;;;;31.61;100.00;95639.94;5005141;28;20207;-59
2023/08/16 10:41:25;;;;;;;1999.90;999.90;;;;;;;31.69;100.00;95623.91;5004890;28;20196;-59
2023/08/16 10:43:53;;;;;;;1999.90;999.90;;;;;;;32.22;100.00;95628.47;5004746;28;20203;-59